Time;durP1;ratioP1;P1;durP2;ratioP2;P2;SDS_P1;SDS_P2;PMS_P1;PMS_P2;Temp;Humidity;BMP_temperature;BMP_pressure;BME280_temperature;BME280_humidity;BME280_pressure;Samples;Min_cycle;Max_cycle;Signal;HPM_P1;HPM_P2
2021/04/23 00:01:16;;;;;;;8.27;3.70;;;11.80;43.50;;;;;;1487665;39;20103;-53
2021/04/23 00:02:38;;;;;;;3.78;3.22;;;11.80;43.60;;;;;;1491219;39;20357;-52
2021/04/23 00:04:02;;;;;;;5.55;3.08;;;11.70;43.50;;;;;;1490754;39;20427;-50
2021/04/23 00:05:23;;;;;;;4.95;3.13;;;11.70;43.60;;;;;;1483557;39;20021;-52
2021/04/23 00:06:53;;;;;;;4.25;3.00;;;11.70;43.60;;;;;;1488047;39;20047;-52
2021/04/23 00:08:16;;;;;;;6.03;3.22;;;11.70;44.00;;;;;;1489132;39;20016;-52
2021/04/23 00:09:38;;;;;;;5.15;2.90;;;11.70;43.60;;;;;;1490215;39;20027;-52
2021/04/23 00:10:59;;;;;;;6.18;3.53;;;11.70;43.60;;;;;;1489962;39;20039;-52
2021/04/23 00:12:20;;;;;;;5.93;2.97;;;11.70;43.60;;;;;;1489068;39;20180;-52
2021/04/23 00:13:41;;;;;;;6.53;3.20;;;11.70;43.60;;;;;;1490470;39;20382;-51
2021/04/23 00:15:05;;;;;;;5.93;3.20;;;11.70;43.60;;;;;;1490751;39;20032;-50
2021/04/23 00:16:26;;;;;;;6.53;3.35;;;11.70;43.60;;;;;;1490145;39;20299;-53
2021/04/23 00:17:48;;;;;;;8.85;2.97;;;11.60;43.70;;;;;;1490943;39;20031;-51
2021/04/23 00:19:12;;;;;;;6.35;3.58;;;11.60;43.80;;;;;;1491439;39;20045;-54
2021/04/23 00:20:35;;;;;;;5.80;3.33;;;11.60;43.80;;;;;;1490841;39;20198;-51
2021/04/23 00:21:57;;;;;;;6.45;3.47;;;11.60;43.90;;;;;;1490905;39;20274;-53
2021/04/23 00:23:18;;;;;;;3.75;3.10;;;11.60;43.80;;;;;;1490185;39;20027;-51
2021/04/23 00:24:39;;;;;;;7.15;3.33;;;11.60;43.80;;;;;;1484732;39;20151;-49
2021/04/23 00:26:01;;;;;;;5.18;3.05;;;11.60;43.90;;;;;;1485437;40;20063;-51
2021/04/23 00:27:22;;;;;;;5.25;3.33;;;11.60;43.90;;;;;;1489903;39;20356;-49
2021/04/23 00:28:43;;;;;;;6.90;3.63;;;11.60;44.00;;;;;;1489800;39;20053;-54
2021/04/23 00:30:06;;;;;;;5.32;3.08;;;11.50;44.00;;;;;;1490383;39;20032;-56
2021/04/23 00:31:27;;;;;;;3.95;3.10;;;11.50;44.00;;;;;;1488890;39;20047;-53
2021/04/23 00:32:54;;;;;;;4.50;3.20;;;11.50;43.90;;;;;;1491536;39;20058;-51
2021/04/23 00:34:15;;;;;;;5.55;3.10;;;11.50;43.90;;;;;;1491125;39;20043;-50
2021/04/23 00:35:40;;;;;;;6.93;3.53;;;11.50;43.90;;;;;;1490563;39;20253;-50
2021/04/23 00:37:01;;;;;;;7.10;3.65;;;11.50;44.00;;;;;;1490097;39;20047;-53
2021/04/23 00:38:24;;;;;;;5.43;3.75;;;11.50;43.90;;;;;;1490124;39;20058;-51
2021/04/23 00:39:45;;;;;;;4.50;3.10;;;11.40;44.00;;;;;;1490086;39;20405;-51
2021/04/23 00:41:15;;;;;;;7.38;3.60;;;11.40;44.00;;;;;;1488957;39;20058;-52
2021/04/23 00:42:36;;;;;;;4.38;2.85;;;11.40;44.10;;;;;;1489520;39;20066;-53
2021/04/23 00:43:57;;;;;;;4.53;3.17;;;11.40;43.90;;;;;;1490444;39;20051;-51
2021/04/23 00:45:21;;;;;;;5.70;3.55;;;11.40;44.00;;;;;;1486311;39;20028;-54
2021/04/23 00:46:42;;;;;;;5.20;3.15;;;11.40;44.20;;;;;;1489746;39;20028;-51
2021/04/23 00:48:06;;;;;;;6.60;3.55;;;11.40;44.10;;;;;;1491217;39;20064;-52
2021/04/23 00:49:27;;;;;;;5.30;3.20;;;11.40;44.40;;;;;;1491165;39;20346;-50
2021/04/23 00:50:52;;;;;;;5.57;3.22;;;11.40;44.30;;;;;;1490018;39;20173;-51
2021/04/23 00:52:13;;;;;;;7.50;3.50;;;11.40;44.50;;;;;;1488608;39;20035;-49
2021/04/23 00:53:38;;;;;;;6.93;3.40;;;11.30;44.30;;;;;;1489984;39;20156;-54
2021/04/23 00:54:59;;;;;;;5.25;2.72;;;11.30;44.50;;;;;;1490610;39;20320;-50
2021/04/23 00:56:27;;;;;;;3.63;3.20;;;11.30;44.40;;;;;;1489311;39;20281;-50
2021/04/23 00:57:48;;;;;;;5.15;2.97;;;11.30;44.60;;;;;;1489574;39;20448;-51
2021/04/23 00:59:11;;;;;;;5.85;3.17;;;11.30;44.40;;;;;;1486734;40;20024;-53
2021/04/23 01:00:33;;;;;;;4.63;3.50;;;11.30;44.40;;;;;;1490050;39;20063;-50
2021/04/23 01:02:14;;;;;;;4.97;3.75;;;11.20;44.30;;;;;;1490198;39;20354;-51
2021/04/23 01:03:36;;;;;;;3.88;3.35;;;11.20;44.50;;;;;;1485422;40;20098;-51
2021/04/23 01:04:57;;;;;;;7.20;3.70;;;11.20;44.60;;;;;;1488346;39;20035;-51
2021/04/23 01:06:24;;;;;;;6.63;3.92;;;11.20;44.60;;;;;;1485694;39;20341;-51
2021/04/23 01:07:48;;;;;;;5.43;3.45;;;11.10;44.60;;;;;;1489189;39;20361;-50
2021/04/23 01:09:20;;;;;;;5.93;2.92;;;11.10;44.60;;;;;;1490424;39;20141;-54
2021/04/23 01:10:42;;;;;;;6.30;3.22;;;11.10;44.90;;;;;;1490774;39;20513;-54
2021/04/23 01:12:05;;;;;;;4.25;3.40;;;11.10;44.60;;;;;;1489181;39;20032;-49
2021/04/23 01:13:31;;;;;;;5.53;3.67;;;11.10;44.60;;;;;;1490456;39;20080;-50
2021/04/23 01:14:52;;;;;;;4.72;3.20;;;11.00;44.70;;;;;;1490888;39;20101;-52
2021/04/23 01:16:16;;;;;;;5.05;2.88;;;11.00;44.80;;;;;;1488830;39;20116;-53
2021/04/23 01:17:38;;;;;;;5.45;3.58;;;11.00;44.90;;;;;;1491311;39;20028;-52
2021/04/23 01:18:59;;;;;;;6.63;3.38;;;11.00;44.90;;;;;;1490928;39;20057;-49
2021/04/23 01:20:22;;;;;;;6.72;3.78;;;11.00;44.90;;;;;;1491010;39;20117;-50
2021/04/23 01:21:43;;;;;;;5.40;3.28;;;11.00;44.80;;;;;;1490018;39;20216;-51
2021/04/23 01:23:04;;;;;;;5.78;3.67;;;11.00;44.70;;;;;;1490974;39;20032;-52
2021/04/23 01:24:25;;;;;;;6.28;3.50;;;11.00;44.80;;;;;;1490674;39;20028;-51
2021/04/23 01:25:46;;;;;;;5.50;3.83;;;10.90;45.00;;;;;;1486241;39;20047;-54
2021/04/23 01:27:07;;;;;;;6.30;3.58;;;10.90;45.00;;;;;;1485466;40;20028;-54
2021/04/23 01:28:29;;;;;;;6.18;3.50;;;10.90;45.00;;;;;;1489586;39;20023;-52
2021/04/23 01:29:50;;;;;;;4.22;3.05;;;10.90;45.00;;;;;;1490478;39;20045;-52
2021/04/23 01:31:13;;;;;;;5.43;3.28;;;10.90;45.20;;;;;;1492640;39;20881;-51
2021/04/23 01:32:35;;;;;;;5.85;3.53;;;10.80;45.10;;;;;;1489836;39;20036;-51
2021/04/23 01:34:01;;;;;;;5.20;3.38;;;10.80;45.00;;;;;;1489770;39;20035;-51
2021/04/23 01:35:26;;;;;;;6.03;3.80;;;10.80;45.20;;;;;;1488646;39;20023;-51
2021/04/23 01:36:47;;;;;;;6.95;3.40;;;10.80;45.30;;;;;;1489937;39;20114;-54
2021/04/23 01:38:09;;;;;;;6.93;3.50;;;10.70;45.20;;;;;;1491336;39;20019;-52
2021/04/23 01:39:31;;;;;;;7.50;3.58;;;10.80;45.20;;;;;;1490028;39;20033;-53
2021/04/23 01:40:52;;;;;;;5.40;3.17;;;10.70;45.10;;;;;;1490681;39;20246;-49
2021/04/23 01:42:14;;;;;;;7.55;3.72;;;10.70;45.10;;;;;;1490366;39;20019;-53
2021/04/23 01:43:35;;;;;;;6.18;3.80;;;10.70;45.20;;;;;;1489299;39;20039;-52
2021/04/23 01:44:58;;;;;;;7.20;4.38;;;10.70;45.40;;;;;;1490961;39;20031;-53
2021/04/23 01:46:19;;;;;;;4.10;3.03;;;10.70;45.30;;;;;;1485251;39;20035;-53
2021/04/23 01:47:40;;;;;;;7.93;3.47;;;10.60;45.40;;;;;;1488034;39;20036;-49
2021/04/23 01:49:09;;;;;;;6.75;3.88;;;10.60;45.40;;;;;;1491040;39;20030;-51
2021/04/23 01:50:31;;;;;;;6.15;3.67;;;10.60;45.60;;;;;;1490419;39;20028;-52
2021/04/23 01:51:58;;;;;;;6.65;3.53;;;10.60;45.50;;;;;;1489705;39;20046;-52
2021/04/23 01:53:19;;;;;;;4.68;3.72;;;10.60;45.70;;;;;;1490173;39;20047;-56
2021/04/23 01:54:41;;;;;;;6.13;3.15;;;10.60;45.50;;;;;;1490088;39;20027;-55
2021/04/23 01:56:04;;;;;;;6.68;3.50;;;10.60;45.60;;;;;;1490504;39;20028;-54
2021/04/23 01:57:24;;;;;;;7.72;3.95;;;10.60;45.60;;;;;;1488879;39;20039;-55
2021/04/23 01:58:46;;;;;;;5.20;3.42;;;10.60;45.60;;;;;;1490372;39;20020;-51
2021/04/23 02:00:11;;;;;;;5.18;3.50;;;10.50;45.60;;;;;;1490449;39;20040;-53
2021/04/23 02:01:32;;;;;;;6.47;4.00;;;10.50;45.70;;;;;;1489375;39;20043;-52
2021/04/23 02:02:58;;;;;;;3.92;3.50;;;10.50;45.70;;;;;;1489667;39;20349;-55
2021/04/23 02:04:19;;;;;;;6.97;3.65;;;10.50;45.70;;;;;;1490807;39;20027;-51
2021/04/23 02:05:42;;;;;;;7.22;3.55;;;10.50;45.60;;;;;;1490817;39;20487;-52
2021/04/23 02:07:06;;;;;;;7.68;3.75;;;10.50;45.60;;;;;;1490091;39;20116;-52
2021/04/23 02:08:27;;;;;;;8.15;3.63;;;10.50;45.60;;;;;;1489260;39;20032;-52
2021/04/23 02:09:48;;;;;;;5.15;3.35;;;10.50;45.60;;;;;;1488999;39;20024;-50
2021/04/23 02:11:17;;;;;;;7.25;3.83;;;10.50;45.60;;;;;;1488096;39;20374;-53
2021/04/23 02:12:38;;;;;;;7.57;4.35;;;10.40;45.70;;;;;;1489216;39;20024;-51
2021/04/23 02:13:59;;;;;;;9.68;3.83;;;10.50;45.70;;;;;;1488236;39;20382;-52
2021/04/23 02:15:21;;;;;;;6.90;4.07;;;10.50;45.80;;;;;;1490681;39;20394;-52
2021/04/23 02:16:43;;;;;;;5.30;3.83;;;10.40;45.80;;;;;;1490031;39;20040;-50
2021/04/23 02:18:05;;;;;;;5.38;4.07;;;10.40;45.80;;;;;;1486402;40;20028;-53
2021/04/23 02:19:25;;;;;;;5.50;4.20;;;10.40;45.90;;;;;;1489347;39;20035;-50
2021/04/23 02:20:49;;;;;;;5.85;3.70;;;10.40;45.80;;;;;;1488487;39;20361;-51
2021/04/23 02:22:10;;;;;;;6.35;3.78;;;10.40;45.80;;;;;;1490065;39;20052;-51
2021/04/23 02:23:31;;;;;;;5.57;3.67;;;10.40;45.80;;;;;;1488745;39;20028;-54
2021/04/23 02:24:52;;;;;;;8.10;3.97;;;10.40;46.00;;;;;;1488918;39;20292;-49
2021/04/23 02:26:14;;;;;;;7.00;3.75;;;10.40;46.00;;;;;;1489693;39;20031;-51
2021/04/23 02:27:35;;;;;;;5.47;3.70;;;10.30;46.00;;;;;;1489804;39;20295;-50
2021/04/23 02:28:56;;;;;;;7.43;3.90;;;10.30;46.00;;;;;;1488320;39;20032;-52
2021/04/23 02:30:33;;;;;;;5.55;4.05;;;10.30;46.00;;;;;;1490288;39;20345;-53
2021/04/23 02:31:55;;;;;;;6.93;4.43;;;10.30;46.70;;;;;;1488614;39;20035;-53
2021/04/23 02:33:19;;;;;;;7.32;4.00;;;10.30;46.20;;;;;;1488306;39;20077;-51
2021/04/23 02:34:40;;;;;;;5.63;4.05;;;10.30;46.70;;;;;;1488977;39;20039;-52
2021/04/23 02:36:01;;;;;;;7.15;3.97;;;10.30;46.10;;;;;;1488938;39;20157;-51
2021/04/23 02:37:22;;;;;;;6.18;3.90;;;10.30;46.20;;;;;;1490111;39;20077;-53
2021/04/23 02:38:44;;;;;;;6.15;4.15;;;10.30;46.00;;;;;;1490576;39;20063;-51
2021/04/23 02:40:08;;;;;;;5.20;3.90;;;10.20;46.00;;;;;;1489906;39;20028;-52
2021/04/23 02:41:29;;;;;;;6.53;3.97;;;10.20;46.10;;;;;;1490169;39;20050;-52
2021/04/23 02:42:52;;;;;;;8.23;4.32;;;10.20;46.20;;;;;;1488163;39;20048;-52
2021/04/23 02:44:14;;;;;;;8.10;4.05;;;10.20;46.30;;;;;;1489182;39;20376;-52
2021/04/23 02:45:38;;;;;;;7.93;4.40;;;10.20;46.20;;;;;;1488398;39;20138;-54
2021/04/23 02:46:59;;;;;;;4.55;3.70;;;10.20;46.30;;;;;;1489932;39;20042;-52
2021/04/23 02:48:23;;;;;;;4.80;3.80;;;10.20;46.20;;;;;;1489734;39;20036;-53
2021/04/23 02:49:44;;;;;;;9.90;4.13;;;10.20;46.40;;;;;;1491429;39;20048;-51
2021/04/23 02:51:12;;;;;;;5.13;4.10;;;10.20;46.30;;;;;;1490326;39;20113;-51
2021/04/23 02:52:33;;;;;;;6.05;4.18;;;10.10;46.50;;;;;;1489378;39;20657;-54
2021/04/23 02:53:55;;;;;;;7.65;4.53;;;10.20;46.40;;;;;;1490820;39;20059;-53
2021/04/23 02:55:18;;;;;;;7.18;4.05;;;10.10;46.50;;;;;;1490933;39;20027;-51
2021/04/23 02:56:40;;;;;;;7.47;4.30;;;10.10;46.60;;;;;;1491331;39;20043;-54
2021/04/23 02:58:09;;;;;;;4.40;3.67;;;10.10;46.40;;;;;;1490676;39;20667;-53
2021/04/23 02:59:30;;;;;;;5.60;3.90;;;10.10;46.50;;;;;;1490884;39;20367;-50
2021/04/23 03:00:55;;;;;;;5.28;4.18;;;10.10;46.40;;;;;;1490995;39;20343;-52
2021/04/23 03:02:16;;;;;;;8.10;5.15;;;10.10;46.60;;;;;;1491419;39;20020;-55
2021/04/23 03:03:37;;;;;;;9.07;4.88;;;10.10;46.50;;;;;;1490930;39;20035;-52
2021/04/23 03:04:58;;;;;;;6.70;4.75;;;10.10;46.50;;;;;;1490916;39;20563;-54
2021/04/23 03:06:19;;;;;;;9.38;4.50;;;10.00;46.50;;;;;;1491349;39;20046;-53
2021/04/23 03:07:40;;;;;;;7.55;4.43;;;10.00;46.50;;;;;;1490302;39;20486;-51
2021/04/23 03:09:03;;;;;;;6.40;4.57;;;10.00;46.50;;;;;;1491560;39;20038;-52
2021/04/23 03:10:27;;;;;;;7.43;4.40;;;10.00;46.60;;;;;;1491467;39;20146;-53
2021/04/23 03:11:48;;;;;;;5.38;4.22;;;10.00;46.60;;;;;;1489814;39;20027;-54
2021/04/23 03:13:22;;;;;;;6.65;4.80;;;10.00;46.60;;;;;;1489724;39;20020;-53
2021/04/23 03:14:44;;;;;;;5.90;4.35;;;9.90;47.00;;;;;;1487168;39;20028;-50
2021/04/23 03:16:06;;;;;;;5.65;4.55;;;10.00;46.70;;;;;;1488084;39;20217;-50
2021/04/23 03:17:27;;;;;;;6.90;5.43;;;9.90;46.80;;;;;;1490739;39;20031;-50
2021/04/23 03:18:48;;;;;;;8.00;5.40;;;9.90;46.80;;;;;;1490525;39;20090;-50
2021/04/23 03:20:14;;;;;;;9.75;5.47;;;10.00;46.80;;;;;;1490743;39;20023;-52
2021/04/23 03:21:35;;;;;;;7.78;4.38;;;9.90;46.90;;;;;;1489444;39;20481;-53
2021/04/23 03:22:56;;;;;;;6.30;4.70;;;9.90;46.80;;;;;;1490290;39;20544;-49
2021/04/23 03:24:18;;;;;;;7.07;4.35;;;9.90;46.90;;;;;;1489469;39;20039;-53
2021/04/23 03:25:40;;;;;;;5.95;4.30;;;9.90;46.90;;;;;;1488613;39;20028;-52
2021/04/23 03:27:01;;;;;;;7.47;4.60;;;9.90;46.90;;;;;;1490551;39;20085;-51
2021/04/23 03:28:22;;;;;;;6.70;4.50;;;9.90;46.90;;;;;;1490359;39;20042;-52
2021/04/23 03:29:43;;;;;;;6.85;4.63;;;9.80;46.80;;;;;;1491130;39;20051;-52
2021/04/23 03:31:05;;;;;;;10.00;5.35;;;9.80;46.80;;;;;;1490940;39;20275;-55
2021/04/23 03:32:26;;;;;;;6.90;4.55;;;9.80;47.00;;;;;;1489681;39;20040;-50
2021/04/23 03:33:47;;;;;;;7.97;5.13;;;9.80;47.00;;;;;;1490533;39;20269;-52
2021/04/23 03:35:11;;;;;;;7.70;4.55;;;9.80;46.90;;;;;;1490774;39;20054;-53
2021/04/23 03:36:32;;;;;;;7.35;4.40;;;9.80;47.00;;;;;;1489430;39;20036;-51
2021/04/23 03:37:54;;;;;;;9.13;4.80;;;9.80;46.90;;;;;;1490425;39;20046;-53
2021/04/23 03:39:15;;;;;;;7.40;4.88;;;9.80;46.90;;;;;;1489860;39;20050;-54
2021/04/23 03:40:38;;;;;;;11.65;5.60;;;9.80;47.00;;;;;;1490959;39;20032;-52
2021/04/23 03:41:59;;;;;;;9.27;4.88;;;9.70;47.10;;;;;;1490386;39;20036;-53
2021/04/23 03:43:20;;;;;;;9.23;5.63;;;9.70;47.10;;;;;;1490211;39;20052;-54
2021/04/23 03:44:41;;;;;;;9.15;5.05;;;9.70;47.10;;;;;;1490021;39;20076;-51
2021/04/23 03:46:02;;;;;;;10.13;5.65;;;9.70;47.10;;;;;;1490144;39;20031;-54
2021/04/23 03:47:23;;;;;;;8.18;5.45;;;9.70;47.10;;;;;;1489504;39;20070;-53
2021/04/23 03:48:45;;;;;;;9.63;5.93;;;9.70;47.20;;;;;;1491215;39;20024;-54
2021/04/23 03:50:08;;;;;;;8.02;4.63;;;9.70;47.30;;;;;;1489585;39;20044;-53
2021/04/23 03:51:29;;;;;;;8.18;5.13;;;9.70;47.40;;;;;;1490801;39;20365;-51
2021/04/23 03:52:51;;;;;;;8.15;5.05;;;9.60;47.30;;;;;;1490239;39;20044;-55
2021/04/23 03:54:12;;;;;;;8.20;5.18;;;9.60;47.30;;;;;;1489669;39;20029;-53
2021/04/23 03:55:38;;;;;;;8.43;5.30;;;9.60;47.40;;;;;;1491213;39;20032;-53
2021/04/23 03:56:59;;;;;;;7.90;4.85;;;9.60;47.60;;;;;;1489476;39;20050;-53
2021/04/23 03:58:22;;;;;;;7.82;4.90;;;9.60;47.50;;;;;;1489330;39;20020;-53
2021/04/23 03:59:43;;;;;;;8.70;5.38;;;9.60;47.60;;;;;;1490064;39;20067;-49
2021/04/23 04:01:26;;;;;;;9.25;5.10;;;9.60;47.40;;;;;;1489794;39;20116;-52
2021/04/23 04:02:47;;;;;;;7.40;4.75;;;9.60;47.50;;;;;;1490262;39;20039;-51
2021/04/23 04:04:08;;;;;;;8.93;4.97;;;9.60;47.30;;;;;;1491271;39;20039;-52
2021/04/23 04:05:29;;;;;;;7.00;4.90;;;9.50;47.40;;;;;;1488926;39;20024;-51
2021/04/23 04:06:50;;;;;;;8.00;5.07;;;9.60;47.40;;;;;;1488869;39;20028;-53
2021/04/23 04:08:11;;;;;;;8.52;5.70;;;9.50;47.40;;;;;;1489245;39;20040;-54
2021/04/23 04:09:31;;;;;;;9.93;5.78;;;9.50;47.40;;;;;;1490729;39;20071;-54
2021/04/23 04:10:52;;;;;;;12.45;6.13;;;9.50;47.50;;;;;;1489030;39;20043;-53
2021/04/23 04:12:13;;;;;;;7.28;5.18;;;9.50;47.60;;;;;;1490828;39;20316;-53
2021/04/23 04:13:35;;;;;;;10.32;5.90;;;9.50;47.80;;;;;;1488252;39;20035;-53
2021/04/23 04:14:56;;;;;;;11.18;5.80;;;9.50;48.10;;;;;;1490395;39;20027;-51
2021/04/23 04:16:17;;;;;;;7.65;5.05;;;9.40;47.80;;;;;;1489182;39;20035;-53
2021/04/23 04:17:38;;;;;;;7.53;4.85;;;9.50;48.00;;;;;;1491360;39;20432;-50
2021/04/23 04:19:00;;;;;;;7.47;5.22;;;9.50;48.00;;;;;;1491323;39;20098;-51
2021/04/23 04:20:24;;;;;;;8.40;5.50;;;9.50;48.10;;;;;;1491038;39;20036;-54
2021/04/23 04:21:44;;;;;;;9.23;5.18;;;9.40;48.20;;;;;;1488180;39;20020;-50
2021/04/23 04:23:07;;;;;;;9.40;5.63;;;9.40;48.10;;;;;;1489377;39;20042;-53
2021/04/23 04:24:28;;;;;;;10.73;5.47;;;9.40;48.60;;;;;;1489829;39;20101;-51
2021/04/23 04:25:57;;;;;;;9.85;5.50;;;9.40;48.10;;;;;;1488758;39;20031;-53
2021/04/23 04:27:18;;;;;;;12.23;5.57;;;9.40;48.20;;;;;;1491152;39;20075;-51
2021/04/23 04:28:39;;;;;;;10.98;5.57;;;9.40;48.10;;;;;;1490744;39;20055;-54
2021/04/23 04:30:00;;;;;;;11.20;6.00;;;9.40;48.10;;;;;;1486408;40;20044;-51
2021/04/23 04:31:21;;;;;;;7.93;5.13;;;9.40;48.10;;;;;;1489079;39;20020;-52
2021/04/23 04:32:43;;;;;;;10.57;5.55;;;9.40;48.20;;;;;;1489916;39;20312;-51
2021/04/23 04:34:04;;;;;;;8.80;5.35;;;9.30;48.20;;;;;;1491293;39;20032;-51
2021/04/23 04:35:26;;;;;;;8.60;5.70;;;9.40;48.30;;;;;;1491071;39;20044;-53
2021/04/23 04:36:47;;;;;;;10.75;6.00;;;9.30;48.40;;;;;;1488370;39;20047;-52
2021/04/23 04:38:11;;;;;;;9.48;6.00;;;9.30;48.50;;;;;;1483233;39;20409;-51
2021/04/23 04:39:31;;;;;;;9.38;5.82;;;9.30;48.60;;;;;;1488946;39;20036;-50
2021/04/23 04:40:52;;;;;;;7.22;5.50;;;9.30;48.50;;;;;;1488844;39;20276;-51
2021/04/23 04:42:13;;;;;;;8.73;6.13;;;9.30;48.60;;;;;;1489244;39;20027;-51
2021/04/23 04:43:34;;;;;;;11.27;5.70;;;9.30;48.60;;;;;;1489223;39;20024;-51
2021/04/23 04:45:00;;;;;;;11.02;6.05;;;9.30;48.70;;;;;;1489935;39;20035;-52
2021/04/23 04:46:22;;;;;;;10.82;6.20;;;9.30;48.70;;;;;;1486240;39;20419;-50
2021/04/23 04:47:44;;;;;;;11.30;6.25;;;9.30;48.70;;;;;;1488841;39;20375;-53
2021/04/23 04:49:04;;;;;;;10.25;5.97;;;9.30;48.90;;;;;;1486497;40;20036;-53
2021/04/23 04:50:30;;;;;;;12.32;6.22;;;9.30;48.90;;;;;;1486984;39;20047;-52
2021/04/23 04:51:51;;;;;;;15.70;6.07;;;9.30;49.00;;;;;;1489983;39;20087;-53
2021/04/23 04:53:13;;;;;;;10.90;5.80;;;9.20;48.90;;;;;;1490280;39;20035;-50
2021/04/23 04:54:34;;;;;;;10.80;5.88;;;9.20;49.10;;;;;;1489740;39;20019;-50
2021/04/23 04:55:59;;;;;;;10.50;5.88;;;9.20;49.00;;;;;;1486003;40;20036;-52
2021/04/23 04:57:20;;;;;;;9.85;5.72;;;9.20;49.10;;;;;;1489754;39;20040;-51
2021/04/23 04:58:42;;;;;;;10.63;5.93;;;9.20;49.00;;;;;;1489890;39;20036;-50
2021/04/23 05:00:12;;;;;;;9.30;5.88;;;9.20;49.20;;;;;;1489705;39;20031;-51
2021/04/23 05:01:33;;;;;;;10.85;5.90;;;9.20;49.50;;;;;;1488259;39;20015;-50
2021/04/23 05:02:55;;;;;;;11.93;5.85;;;9.20;49.20;;;;;;1490105;39;20044;-49
2021/04/23 05:04:16;;;;;;;10.75;6.65;;;9.30;49.30;;;;;;1490293;39;20031;-53
2021/04/23 05:05:38;;;;;;;11.70;6.32;;;9.20;49.40;;;;;;1488922;39;20047;-52
2021/04/23 05:06:59;;;;;;;9.70;6.13;;;9.20;49.30;;;;;;1490933;39;20071;-52
2021/04/23 05:08:20;;;;;;;10.00;5.93;;;9.20;49.40;;;;;;1490713;39;20055;-53
2021/04/23 05:09:40;;;;;;;10.68;6.45;;;9.20;49.50;;;;;;1489218;39;20288;-54
2021/04/23 05:11:02;;;;;;;12.07;6.55;;;9.20;49.60;;;;;;1490481;39;20060;-53
2021/04/23 05:12:23;;;;;;;12.93;6.72;;;9.20;49.70;;;;;;1491221;39;20030;-49
2021/04/23 05:13:44;;;;;;;12.95;5.85;;;9.20;49.70;;;;;;1491030;39;20047;-50
2021/04/23 05:15:08;;;;;;;10.07;5.75;;;9.20;49.70;;;;;;1490083;39;20562;-51
2021/04/23 05:16:29;;;;;;;8.73;6.05;;;9.30;49.90;;;;;;1489682;39;20272;-49
2021/04/23 05:17:50;;;;;;;13.13;6.78;;;9.30;49.70;;;;;;1489303;39;20035;-53
2021/04/23 05:19:10;;;;;;;9.13;6.13;;;9.30;49.80;;;;;;1490784;39;20311;-52
2021/04/23 05:20:32;;;;;;;11.15;7.10;;;9.30;49.90;;;;;;1490440;39;20311;-53
2021/04/23 05:21:53;;;;;;;11.70;6.07;;;9.30;49.80;;;;;;1489183;39;20349;-50
2021/04/23 05:23:14;;;;;;;11.23;6.57;;;9.30;50.00;;;;;;1490753;39;20035;-52
2021/04/23 05:24:35;;;;;;;10.10;6.00;;;9.30;49.90;;;;;;1490598;39;20032;-53
2021/04/23 05:25:56;;;;;;;11.15;6.20;;;9.30;50.00;;;;;;1488532;39;20116;-52
2021/04/23 05:27:17;;;;;;;8.95;6.03;;;9.30;50.10;;;;;;1491391;39;20376;-54
2021/04/23 05:28:38;;;;;;;9.65;6.18;;;9.30;50.00;;;;;;1489936;39;20132;-55
2021/04/23 05:30:00;;;;;;;9.32;6.05;;;9.30;50.00;;;;;;1489468;39;20038;-51
2021/04/23 05:31:20;;;;;;;10.20;6.18;;;9.30;50.00;;;;;;1488668;39;20240;-53
2021/04/23 05:32:42;;;;;;;10.27;7.10;;;9.30;50.00;;;;;;1489744;39;20055;-54
2021/04/23 05:34:03;;;;;;;8.90;5.82;;;9.30;50.10;;;;;;1488947;39;20066;-55
2021/04/23 05:35:25;;;;;;;11.13;6.50;;;9.40;50.10;;;;;;1490931;39;20120;-52
2021/04/23 05:36:46;;;;;;;11.32;6.35;;;9.40;50.10;;;;;;1490533;39;20287;-54
2021/04/23 05:38:08;;;;;;;11.38;6.63;;;9.40;50.20;;;;;;1490978;39;20038;-52
2021/04/23 05:39:29;;;;;;;10.95;6.03;;;9.40;50.20;;;;;;1489362;39;20036;-52
2021/04/23 05:40:50;;;;;;;9.50;6.25;;;9.40;50.20;;;;;;1490926;39;20338;-53
2021/04/23 05:42:12;;;;;;;9.02;6.10;;;9.50;50.20;;;;;;1490427;39;20019;-53
2021/04/23 05:43:32;;;;;;;13.10;6.18;;;9.40;50.10;;;;;;1489773;39;20051;-54
2021/04/23 05:44:55;;;;;;;13.93;7.25;;;9.40;50.10;;;;;;1489394;39;20030;-52
2021/04/23 05:46:20;;;;;;;10.23;6.18;;;9.50;50.20;;;;;;1489690;39;20020;-53
2021/04/23 05:47:41;;;;;;;14.40;6.97;;;9.50;50.30;;;;;;1489067;39;20063;-51
2021/04/23 05:49:03;;;;;;;10.00;6.82;;;9.50;50.30;;;;;;1491065;39;20557;-50
2021/04/23 05:50:26;;;;;;;9.50;6.15;;;9.50;50.30;;;;;;1490852;39;20069;-54
2021/04/23 05:51:46;;;;;;;9.18;6.18;;;9.60;50.40;;;;;;1487938;39;20032;-53
2021/04/23 05:53:08;;;;;;;9.93;6.15;;;9.60;50.50;;;;;;1490385;39;20036;-54
2021/04/23 05:54:29;;;;;;;9.05;5.88;;;9.60;50.50;;;;;;1490793;39;20032;-53
2021/04/23 05:55:50;;;;;;;11.65;5.90;;;9.60;50.50;;;;;;1489333;39;20277;-53
2021/04/23 05:57:11;;;;;;;12.15;6.40;;;9.60;50.50;;;;;;1490308;39;20093;-51
2021/04/23 05:58:32;;;;;;;11.15;6.22;;;9.70;50.60;;;;;;1490445;39;20376;-52
2021/04/23 05:59:53;;;;;;;10.85;6.03;;;9.70;50.60;;;;;;1490182;39;20039;-54
2021/04/23 06:01:15;;;;;;;11.10;6.55;;;9.70;50.70;;;;;;1485868;40;20152;-55
2021/04/23 06:02:36;;;;;;;10.25;6.25;;;9.70;50.80;;;;;;1489484;39;20035;-52
2021/04/23 06:03:57;;;;;;;10.18;5.63;;;9.70;50.70;;;;;;1490696;39;20567;-53
2021/04/23 06:05:18;;;;;;;11.10;6.32;;;9.80;50.80;;;;;;1488795;39;20039;-52
2021/04/23 06:06:40;;;;;;;9.48;5.85;;;9.70;50.80;;;;;;1490251;39;20527;-52
2021/04/23 06:08:04;;;;;;;8.20;5.50;;;9.80;50.90;;;;;;1490164;39;20083;-51
2021/04/23 06:09:25;;;;;;;9.68;5.57;;;9.80;51.00;;;;;;1490375;39;20045;-53
2021/04/23 06:10:48;;;;;;;12.18;6.18;;;9.90;50.90;;;;;;1490033;39;20429;-53
2021/04/23 06:12:09;;;;;;;11.80;6.30;;;9.90;51.00;;;;;;1490550;39;20281;-52
2021/04/23 06:13:30;;;;;;;10.60;5.88;;;9.90;51.00;;;;;;1490216;39;20036;-53
2021/04/23 06:14:50;;;;;;;13.48;6.03;;;9.90;51.00;;;;;;1489382;39;20084;-53
2021/04/23 06:16:12;;;;;;;12.77;6.32;;;9.90;50.90;;;;;;1490155;39;20031;-51
2021/04/23 06:17:32;;;;;;;7.45;5.30;;;9.90;51.00;;;;;;1488008;39;20060;-53
2021/04/23 06:18:53;;;;;;;13.25;5.70;;;10.00;51.00;;;;;;1490889;39;20039;-53
2021/04/23 06:20:18;;;;;;;10.75;5.47;;;10.00;51.00;;;;;;1490644;39;20136;-54
2021/04/23 06:21:39;;;;;;;12.80;6.00;;;10.00;51.20;;;;;;1489884;39;20035;-52
2021/04/23 06:23:02;;;;;;;10.82;5.55;;;10.00;51.10;;;;;;1490899;39;20050;-53
2021/04/23 06:24:23;;;;;;;8.85;4.93;;;10.10;51.10;;;;;;1490904;39;20046;-52
2021/04/23 06:25:44;;;;;;;8.88;4.95;;;10.10;51.10;;;;;;1489458;39;20071;-51
2021/04/23 06:27:06;;;;;;;9.38;5.78;;;10.10;51.00;;;;;;1489495;39;20089;-50
2021/04/23 06:28:27;;;;;;;9.18;5.72;;;10.10;51.10;;;;;;1491244;39;20112;-52
2021/04/23 06:29:50;;;;;;;8.15;5.32;;;10.20;51.10;;;;;;1490231;39;20027;-50
2021/04/23 06:31:13;;;;;;;7.63;4.68;;;10.20;51.10;;;;;;1491087;39;20024;-51
2021/04/23 06:32:34;;;;;;;8.32;4.47;;;10.20;51.20;;;;;;1490828;39;20110;-51
2021/04/23 06:33:55;;;;;;;8.80;4.53;;;10.20;51.10;;;;;;1491109;39;20097;-49
2021/04/23 06:35:19;;;;;;;8.18;4.80;;;10.30;51.10;;;;;;1491185;39;20036;-53
2021/04/23 06:36:40;;;;;;;6.93;4.43;;;10.30;51.10;;;;;;1490791;39;20036;-53
2021/04/23 06:38:01;;;;;;;7.53;3.75;;;10.30;51.00;;;;;;1491568;39;20132;-54
2021/04/23 06:39:22;;;;;;;9.63;4.70;;;10.30;51.00;;;;;;1490589;39;20374;-53
2021/04/23 06:40:43;;;;;;;10.27;4.10;;;10.40;51.00;;;;;;1490107;39;20048;-53
2021/04/23 06:42:04;;;;;;;8.77;4.47;;;10.40;50.90;;;;;;1489054;39;20431;-54
2021/04/23 06:43:25;;;;;;;10.95;4.22;;;10.40;50.80;;;;;;1489233;39;20096;-51
2021/04/23 06:44:46;;;;;;;9.18;4.90;;;10.40;50.80;;;;;;1490034;39;20070;-49
2021/04/23 06:46:07;;;;;;;8.93;4.63;;;10.40;50.70;;;;;;1491706;39;20039;-52
2021/04/23 06:47:31;;;;;;;5.18;4.00;;;10.50;50.70;;;;;;1491156;39;20312;-54
2021/04/23 06:48:52;;;;;;;9.27;3.67;;;10.50;50.60;;;;;;1491206;39;20059;-53
2021/04/23 06:50:16;;;;;;;8.18;4.00;;;10.50;50.50;;;;;;1489156;39;20035;-52
2021/04/23 06:51:38;;;;;;;4.85;3.60;;;10.50;51.00;;;;;;1490751;39;20051;-52
2021/04/23 06:52:58;;;;;;;7.85;4.00;;;10.60;50.40;;;;;;1491191;39;20044;-54
2021/04/23 06:54:19;;;;;;;6.30;4.05;;;10.60;50.30;;;;;;1490924;39;20241;-51
2021/04/23 06:55:43;;;;;;;6.63;3.80;;;10.60;50.20;;;;;;1490222;39;20102;-52
2021/04/23 06:57:04;;;;;;;6.43;3.90;;;10.60;50.10;;;;;;1488222;39;20068;-50
2021/04/23 06:58:25;;;;;;;6.45;3.75;;;10.60;50.00;;;;;;1486580;40;20024;-52
2021/04/23 06:59:46;;;;;;;5.63;3.20;;;10.70;49.90;;;;;;1489862;39;20050;-53
2021/04/23 07:01:07;;;;;;;5.53;3.53;;;10.70;49.80;;;;;;1488920;39;20082;-51
2021/04/23 07:02:27;;;;;;;6.97;3.50;;;10.80;49.70;;;;;;1491301;39;20040;-54
2021/04/23 07:03:48;;;;;;;5.20;3.03;;;10.80;49.60;;;;;;1491746;39;20022;-53
2021/04/23 07:05:10;;;;;;;8.40;4.03;;;10.80;49.60;;;;;;1490973;39;20027;-54
2021/04/23 07:06:31;;;;;;;7.28;3.67;;;10.80;49.60;;;;;;1490674;39;20087;-54
2021/04/23 07:07:52;;;;;;;5.90;4.03;;;10.90;49.60;;;;;;1490721;39;20082;-54
2021/04/23 07:09:17;;;;;;;7.20;3.58;;;10.90;49.50;;;;;;1491048;39;20068;-54